Terminal Aerodrome Forecast
Issued by NWS

Home | Current Version | Previous Version | Text Only | Print | Product List | Glossary On
Versions: 1 2 3 4 5 6 7 8 9 10 11 12 13 14 15 16 17 18 19 20
000
FTUS46 KSEW 202320
TAFCLM
TAF
KCLM 202320Z 2100/2124 32006KT P6SM SCT060
     FM211000 00000KT P6SM SCT015 SCT040
     FM212000 30006KT P6SM SCT040=

USA.gov is the U.S. government's official web portal to all federal, state and local government web resources and services.